Lebanon, NJ (08833)

8:28 AM EDT on September 22, 2014 (GMT -0400)
Misia | Change Station
CLOSE
Current Station
Personal Weather Station
Location: Lebanon, NJ
Elevation: 479 ft
Nearby Weather Stations

Elev 479 ft 40.61 °N, 74.79 °W | Updated 1 second ago

Clear
Clear
61.3 °F
Feels Like 61.3 °F
N
0.0
Wind Variable Wind from NW
Gusts 0.0 mph

Today
High -- | Low -- °F
--% Chance of Precip.
Yesterday
High -- | Low -- °F
Precip. -- in
6:46 AM 6:56 PM
Waning Crescent, 3% visible
Pressure 29.81 in
Visibility 10.0 miles
Clouds Clear
Dew Point 56 °F
Humidity 82%
Rainfall 0.00 in
Snow Depth Not available.
UV 1 out of 12
Pollen 3.00 out of 12
Air Quality Not available.
Flu Activity Not available.
METAR KSMQ 221153Z AUTO 30004KT 10SM CLR 17/11 A2981 RMK AO2 SLP095 70001 T01670111 10194 20144 52033

More Conditions Fewer Conditions

Pressure 29.81 in
Visibility 10.0 miles
Clouds Clear
Dew Point 56 °F
Humidity 82%
Rainfall 0.00 in
Snow Depth Not available.
UV 1 out of 12
Pollen 3.00 out of 12
Air Quality Not available.
Flu Activity Not available.
METAR KSMQ 221153Z AUTO 30004KT 10SM CLR 17/11 A2981 RMK AO2 SLP095 70001 T01670111 10194 20144 52033

More Conditions Fewer Conditions

10-Day Weather Forecast

Almanac

Astronomy

Sep. 22, 2014 Rise Set
Actual Time 6:46 AM EDT 6:56 PM EDT
Civil Twilight 6:19 AM EDT 7:23 PM EDT
Nautical Twilight 5:47 AM EDT 7:55 PM EDT
Astronomical Twilight 5:14 AM EDT 8:28 PM EDT
Moon 5:12 AM EDT 6:03 PM EDT
Length of Visible Light 13h 04m
Length of Day
12h 09m
Tomorrow will be 2m 40s shorter.
Waning Crescent, 3% of the Moon is Illuminated
Today
Waning Crescent
Sep 24
New
Oct 1
First Quarter
Oct 8
Full
Oct 15
Last Quarter

Today's Extremes

State Highs State Lows

Community

WunderPhotos

Upload Photos

1,755,419 photos uploaded!

WunderBlogs® & News

Nearby

Snow Depth

Station Depth Elevation
No new snow has been reported.

Earthquake Activity

City Distance Mag. Time & Date
No recent earthquake activity has been reported nearby.
Minimum magnitude displayed is 2.5.

Coastal Water Temperatures

Place Temperature
No Stations Reporting

Nearby Weather Stations